Latest Weather Observations for Mount Buller

IDV60801

Issued at 10:05 pm EST Wednesday 1 October 2014 (issued every 30 minutes, with the page automatically refreshed every 10 minutes)

About weather observations | Map of weather stations | Latest weather observations for VIC | Other Formats
Station Details ID: 083024 Name: MOUNT BULLER Lat: -37.15 Lon: 146.44 Height: 1707.0 m
Data from the previous 72 hours. | See also: Recent months at Mount Buller
Date/Time
EST
Temp
°C
App
Temp
°C
Dew
Point
Rel
Hum
%
Delta-T
°C
Wind Press
QNH
hPa
Press
MSL
hPa
Rain
since 9 am
mm
Dir
 
Spd
km/h
Gust
km/h
Spd
kts
Gust
kts
01/10:00pm -1.9 - -2.2 98 0.0 - - - - - - - -
01/09:30pm -1.6 - -1.9 98 0.0 - - - - - - - -
01/09:00pm -1.4 - -1.5 99 0.0 - - - - - - - 0.0
01/08:30pm -1.4 - -1.7 98 0.0 - - - - - - - -
01/08:00pm -1.3 - -1.4 99 0.0 - - - - - - - -
01/07:30pm -1.3 - -1.6 98 0.0 - - - - - - - -
01/07:00pm -1.2 - -1.3 99 0.0 - - - - - - - -
01/06:30pm -1.0 - -1.1 99 0.0 - - - - - - - -
01/06:00pm -0.8 - -0.9 99 0.0 - - - - - - - -
01/05:30pm -0.9 - -1.0 99 0.0 - - - - - - - -
01/05:00pm -0.8 - -0.9 99 0.0 - - - - - - - -
01/04:30pm -0.6 - -0.7 99 0.0 - - - - - - - -
01/04:00pm -1.0 - -1.1 99 0.0 - - - - - - - -
01/03:30pm -0.8 - -0.9 99 0.0 - - - - - - - -
01/03:00pm -0.9 - -1.0 99 0.0 - - - - - - - 3.0
01/02:30pm -0.7 - -0.8 99 0.0 - - - - - - - -
01/02:00pm -0.9 - -1.0 99 0.0 - - - - - - - -
01/01:30pm -0.6 - -0.7 99 0.0 - - - - - - - -
01/01:00pm -1.1 - -1.4 98 0.1 - - - - - - - -
01/12:30pm -0.8 - -0.9 99 0.0 - - - - - - - -
01/12:00pm -1.6 - -1.9 98 0.0 - - - - - - - -
01/11:30am -1.3 - -1.6 98 0.0 - - - - - - - -
01/11:00am -1.9 - -2.2 98 0.0 - - - - - - - -
01/10:30am -2.2 - -2.6 97 0.0 - - - - - - - -
01/10:00am -2.5 - -2.9 97 0.0 - - - - - - - -
01/09:30am -3.0 - -3.5 96 0.0 - - - - - - - -
01/09:00am -3.5 - -4.0 96 0.0 - - - - - - - 4.0
01/08:30am -3.4 - -3.9 96 0.0 - - - - - - - -
01/08:00am -3.9 - -4.4 96 0.0 - - - - - - - -
01/07:30am -4.1 - -4.6 96 0.0 - - - - - - - -
01/07:00am -4.3 - -5.0 95 0.0 - - - - - - - -
01/06:30am -4.4 - -5.1 95 0.0 - - - - - - - -
01/06:00am -4.5 - -5.2 95 0.0 - - - - - - - -
01/05:30am -4.5 - -5.2 95 0.0 - - - - - - - -
01/05:00am -4.7 - -5.4 95 0.0 - - - - - - - -
01/04:30am -4.7 - -5.4 95 0.0 - - - - - - - -
01/04:00am -4.4 - -5.1 95 0.0 - - - - - - - -
01/03:30am -4.3 - -5.0 95 0.0 - - - - - - - -
01/03:00am -4.3 - -5.0 95 0.0 - - - - - - - 0.2
01/02:30am -4.1 - -4.8 95 0.1 - - - - - - - -
01/02:00am -4.0 - -4.5 96 0.0 - - - - - - - -
01/01:30am -3.9 - -4.4 96 0.0 - - - - - - - -
01/01:00am -4.0 - -4.5 96 0.0 - - - - - - - -
01/12:30am -3.7 - -4.2 96 0.0 - - - - - - - -
01/12:00am -3.9 - -4.4 96 0.0 - - - - - - - -
 
Date/Time
EST
Temp
°C
App
Temp
°C
Dew
Point
Rel
Hum
%
Delta-T
°C
Wind Press
QNH
hPa
Press
MSL
hPa
Rain
since 9 am
mm
Dir
 
Spd
km/h
Gust
km/h
Spd
kts
Gust
kts
30/11:30pm -3.9 - -4.4 96 0.0 - - - - - - - -
30/11:00pm -4.2 - -4.9 95 0.1 - - - - - - - -
30/10:30pm -3.4 - -3.9 96 0.0 - - - - - - - -
30/10:00pm -3.3 - -3.7 97 0.0 - - - - - - - -
30/09:30pm -3.3 - -3.8 96 0.0 - - - - - - - -
30/09:00pm -2.8 - -3.2 97 0.0 - - - - - - - 3.0
30/08:30pm -2.1 - -2.4 98 0.0 - - - - - - - -
30/08:00pm -2.1 - -2.4 98 0.0 - - - - - - - -
30/07:30pm -2.0 - -2.3 98 0.0 - - - - - - - -
30/07:00pm -0.7 - -0.8 99 0.0 - - - - - - - -
30/06:30pm 1.9 - 1.8 99 0.0 - - - - - - - -
30/06:00pm 3.7 - 3.3 97 0.2 - - - - - - - -
30/05:30pm 7.1 - 2.2 71 2.2 - - - - - - - -
30/05:00pm 7.4 - 2.1 69 2.4 - - - - - - - -
30/04:30pm 7.3 - 2.6 72 2.2 - - - - - - - -
30/04:00pm 6.7 - 3.3 79 1.6 - - - - - - - -
30/03:30pm 6.6 - 3.4 80 1.5 - - - - - - - -
30/03:00pm 6.4 - 3.6 82 1.3 - - - - - - - 0.0
30/02:30pm 6.1 - 3.1 81 1.4 - - - - - - - -
30/02:00pm 6.5 - 2.6 76 1.8 - - - - - - - -
30/01:30pm 6.7 - 2.0 72 2.1 - - - - - - - -
30/01:00pm 6.9 - 1.2 67 2.5 - - - - - - - -
30/12:30pm 8.8 - 0.5 56 3.7 - - - - - - - -
30/12:00pm 9.1 - 1.8 60 3.4 - - - - - - - -
30/11:30am 7.1 - 3.0 75 1.9 - - - - - - - -
30/11:00am 6.6 - 3.4 80 1.5 - - - - - - - -
30/10:30am 7.6 - 4.4 80 1.5 - - - - - - - -
30/10:00am 5.2 - 4.8 97 0.2 - - - - - - - -
30/09:30am 4.7 - 4.6 99 0.0 - - - - - - - -
30/09:00am 4.5 - 4.2 98 0.1 - - - - - - - 0.0
30/08:30am 4.5 - 3.8 95 0.3 - - - - - - - -
30/08:00am 4.7 - 3.4 91 0.6 - - - - - - - -
30/07:30am 5.2 - 3.1 86 1.0 - - - - - - - -
30/07:00am 5.4 - 2.8 83 1.2 - - - - - - - -
30/06:30am 4.9 - 2.6 85 1.0 - - - - - - - -
30/06:00am 4.9 - 2.3 83 1.2 - - - - - - - -
30/05:30am 5.2 - 1.9 79 1.5 - - - - - - - -
30/05:00am 4.9 - 2.3 83 1.2 - - - - - - - -
30/04:30am 4.7 - 2.2 84 1.1 - - - - - - - -
30/04:00am 4.5 - 2.4 86 0.9 - - - - - - - -
30/03:30am 4.5 - 2.2 85 1.0 - - - - - - - -
30/03:00am 4.4 - 2.1 85 1.0 - - - - - - - 0.0
30/02:30am 4.4 - 2.1 85 1.0 - - - - - - - -
30/02:00am 4.2 - 2.1 86 0.9 - - - - - - - -
30/01:30am 3.7 - 1.9 88 0.8 - - - - - - - -
30/01:00am 3.7 - 1.6 86 0.9 - - - - - - - -
30/12:30am 3.5 - 0.6 81 1.2 - - - - - - - -
30/12:00am 3.2 - 2.6 96 0.3 - - - - - - - -
 
Date/Time
EST
Temp
°C
App
Temp
°C
Dew
Point
Rel
Hum
%
Delta-T
°C
Wind Press
QNH
hPa
Press
MSL
hPa
Rain
since 9 am
mm
Dir
 
Spd
km/h
Gust
km/h
Spd
kts
Gust
kts
29/11:30pm 3.8 - 3.5 98 0.1 - - - - - - - -
29/11:00pm 3.5 - 2.9 96 0.3 - - - - - - - -
29/10:30pm 3.7 - 3.1 96 0.3 - - - - - - - -
29/10:00pm 3.8 - 1.7 86 0.9 - - - - - - - -
29/09:30pm 3.7 - 0.2 78 1.5 - - - - - - - -
29/09:00pm 4.8 - -2.5 59 2.9 - - - - - - - 0.0
29/08:30pm 4.8 - -2.1 61 2.8 - - - - - - - -
29/08:00pm 4.8 - 1.6 80 1.4 - - - - - - - -
29/07:30pm 4.4 - 0.6 76 1.6 - - - - - - - -
29/07:00pm 5.0 - 3.5 90 0.7 - - - - - - - -
29/06:30pm 5.2 - 3.1 86 1.0 - - - - - - - -
29/06:00pm 6.0 - 2.1 76 1.8 - - - - - - - -
29/05:30pm 7.9 - 2.2 67 2.6 - - - - - - - -
29/05:00pm 8.2 - 2.4 67 2.7 - - - - - - - -
29/04:30pm 9.1 - 2.0 61 3.3 - - - - - - - -
29/04:00pm 9.9 - 1.3 55 4.0 - - - - - - - -
29/03:30pm 10.1 - 0.2 50 4.5 - - - - - - - -
29/03:00pm 10.8 - -2.6 39 5.7 - - - - - - - 0.0
29/02:30pm 10.6 - -0.8 45 5.0 - - - - - - - -
29/02:00pm 10.6 - 2.4 57 3.9 - - - - - - - -
29/01:30pm 11.1 - 3.9 61 3.5 - - - - - - - -
29/01:00pm 9.4 - 3.4 66 2.9 - - - - - - - -
29/12:30pm 10.4 - 4.1 65 3.1 - - - - - - - -
29/12:00pm 10.0 - 4.0 66 2.9 - - - - - - - -
29/11:30am 10.4 - 3.9 64 3.2 - - - - - - - -
29/11:00am 8.8 - 2.8 66 2.8 - - - - - - - -
29/10:30am 8.1 - 1.7 64 2.9 - - - - - - - -
29/10:00am 8.6 - -2.9 44 4.7 - - - - - - - -
29/09:30am 7.5 - -2.0 51 4.0 - - - - - - - -
29/09:00am 7.3 - -3.0 48 4.2 - - - - - - - 0.0
29/08:30am 8.1 - -7.2 33 5.7 - - - - - - - -
29/08:00am 8.3 - -7.8 31 5.9 - - - - - - - -
29/07:30am 6.8 - -13.4 22 6.3 - - - - - - - -
29/07:00am 4.9 - -2.2 60 2.9 - - - - - - - -
29/06:30am 4.5 - -2.4 61 2.8 - - - - - - - -
29/06:00am 4.6 - -1.8 63 2.6 - - - - - - - -
29/05:30am 3.6 - -2.3 65 2.3 - - - - - - - -
29/05:00am 3.9 - 0.4 78 1.5 - - - - - - - -
29/04:30am 5.1 - 1.8 79 1.5 - - - - - - - -
29/04:00am 5.4 - 2.1 79 1.5 - - - - - - - -
29/03:30am 6.4 - 1.3 70 2.3 - - - - - - - -
29/03:00am 7.0 - 1.1 66 2.6 - - - - - - - 0.0
29/02:30am 7.4 - 1.3 65 2.7 - - - - - - - -
29/02:00am 8.1 - 1.3 62 3.1 - - - - - - - -
29/01:30am 8.6 - 1.1 59 3.4 - - - - - - - -
29/01:00am 9.7 - 0.9 54 4.0 - - - - - - - -
29/12:30am 9.8 - 0.7 53 4.1 - - - - - - - -
29/12:00am 9.8 - 0.7 53 4.1 - - - - - - - -
 
Date/Time
EST
Temp
°C
App
Temp
°C
Dew
Point
Rel
Hum
%
Delta-T
°C
Wind Press
QNH
hPa
Press
MSL
hPa
Rain
since 9 am
mm
Dir
 
Spd
km/h
Gust
km/h
Spd
kts
Gust
kts
28/11:30pm 9.9 - 0.8 53 4.1 - - - - - - - -
28/11:00pm 9.5 - 1.2 56 3.8 - - - - - - - -
28/10:30pm 9.8 - 1.2 55 3.9 - - - - - - - -

Other Formats:

Comma delimited format used in spreadsheet applications
http://www.bom.gov.au/fwo/IDV60801/IDV60801.94894.axf

JavaScript Object Notation format (JSON) in row-major order
http://www.bom.gov.au/fwo/IDV60801/IDV60801.94894.json